Hovedside
METAR-TAF:

METAR-TAF

Lufthavner :

Kuwait, Kuwait

breddegrad: 29-13N, lengdegrad: 047-59E, høyde over havet: 55 m

Gjeldene værobservasjon

Denne rapporten ble laget for 16 minutter siden, klokken 12:00 UTC
Vind 4 kt fra Øst-sørøst
Temperatur 22°C
Luftfuktighet 69%
Trykk 1021 hPa
Sikt 10 km eller mer
Få skyer i en høyde av 2500 ft

METAR: OKBK 181200Z 11004KT 9999 FEW025 22/16 Q1021 NOSIG

Tid: 15:16 (12:16 UTC)

Varsel

Denne rapporten ble laget for 1 time og 31 minutter siden, klokken 10:45 UTC
Varsel gyldig fra 18. klokken 12 UTC til 19. klokken 18 UTC
Vind 3 kt fra skiftende retning
Sikt: 8000 m
Skyfri himmel
Blir
fra 18. klokken 14 UTC til 18. klokken 16 UTC
Vind 10 kt fra Nord-nordvest

TAF: OKBK 181045Z 1812/1918 VRB03KT 8000 SKC BECMG 1814/1816 34010KT

Værobservasjoner og værvarsel for over 4000 flyplasser (METAR- og TAF-rapporter).

Tilgjengelige stasjoner er representert av de røde og gule prikkene på kartet.

Hold musepekeren over prikken for å se navnet på stasjonen.

Klikk så for å se værobservasjoner og -varsler.

For å forandre kartet kan du klikke på den grønne knappen med svart kryss for å zoome inn, på den grønne knappen med strek for å zoome ut, eller på de grønne pilene for å se tilstøtende kart.


METAR-TAF: